sensor_id;sensor_type;location;lat;lon;timestamp;temperature;humidity
9658;DHT22;4867;48.112;11.622;2023-03-01T00:01:30;1.70;99.90
9658;DHT22;4867;48.112;11.622;2023-03-01T00:03:59;1.70;99.90
9658;DHT22;4867;48.112;11.622;2023-03-01T00:06:27;1.70;99.90
9658;DHT22;4867;48.112;11.622;2023-03-01T00:08:55;1.70;99.90
9658;DHT22;4867;48.112;11.622;2023-03-01T00:11:25;1.60;99.90
9658;DHT22;4867;48.112;11.622;2023-03-01T00:13:55;1.60;99.90
9658;DHT22;4867;48.112;11.622;2023-03-01T00:16:44;1.60;99.90
9658;DHT22;4867;48.112;11.622;2023-03-01T00:19:13;1.60;99.90
9658;DHT22;4867;48.112;11.622;2023-03-01T00:21:41;1.60;99.90
9658;DHT22;4867;48.112;11.622;2023-03-01T00:24:08;1.60;99.90
9658;DHT22;4867;48.112;11.622;2023-03-01T00:26:36;1.70;99.90
9658;DHT22;4867;48.112;11.622;2023-03-01T00:29:03;1.70;99.90
9658;DHT22;4867;48.112;11.622;2023-03-01T00:31:32;1.60;99.90
9658;DHT22;4867;48.112;11.622;2023-03-01T00:34:02;1.60;99.90
9658;DHT22;4867;48.112;11.622;2023-03-01T00:36:32;1.60;99.90
9658;DHT22;4867;48.112;11.622;2023-03-01T00:39:01;1.60;99.90
9658;DHT22;4867;48.112;11.622;2023-03-01T00:41:30;1.60;99.90
9658;DHT22;4867;48.112;11.622;2023-03-01T00:43:57;1.70;99.90
9658;DHT22;4867;48.112;11.622;2023-03-01T00:46:26;1.60;99.90
9658;DHT22;4867;48.112;11.622;2023-03-01T00:48:54;1.60;99.90
9658;DHT22;4867;48.112;11.622;2023-03-01T00:51:24;1.60;99.90
9658;DHT22;4867;48.112;11.622;2023-03-01T00:53:57;1.60;99.90
9658;DHT22;4867;48.112;11.622;2023-03-01T00:56:25;1.60;99.90
9658;DHT22;4867;48.112;11.622;2023-03-01T00:58:52;1.60;99.90
9658;DHT22;4867;48.112;11.622;2023-03-01T01:01:22;1.60;99.90
9658;DHT22;4867;48.112;11.622;2023-03-01T01:03:56;1.60;99.90
9658;DHT22;4867;48.112;11.622;2023-03-01T01:06:29;1.60;99.90
9658;DHT22;4867;48.112;11.622;2023-03-01T01:08:58;1.60;99.90
9658;DHT22;4867;48.112;11.622;2023-03-01T01:11:26;1.50;99.90
9658;DHT22;4867;48.112;11.622;2023-03-01T01:13:54;1.50;99.90
9658;DHT22;4867;48.112;11.622;2023-03-01T01:16:24;1.50;99.90
9658;DHT22;4867;48.112;11.622;2023-03-01T01:18:52;1.50;99.90
9658;DHT22;4867;48.112;11.622;2023-03-01T01:21:21;1.50;99.90
9658;DHT22;4867;48.112;11.622;2023-03-01T01:23:50;1.50;99.90
9658;DHT22;4867;48.112;11.622;2023-03-01T01:26:24;1.50;99.90
9658;DHT22;4867;48.112;11.622;2023-03-01T01:28:52;1.50;99.90
9658;DHT22;4867;48.112;11.622;2023-03-01T01:31:21;1.50;99.90
9658;DHT22;4867;48.112;11.622;2023-03-01T01:33:51;1.50;99.90
9658;DHT22;4867;48.112;11.622;2023-03-01T01:36:18;1.50;99.90
9658;DHT22;4867;48.112;11.622;2023-03-01T01:38:45;1.50;99.90
9658;DHT22;4867;48.112;11.622;2023-03-01T01:41:13;1.50;99.90
9658;DHT22;4867;48.112;11.622;2023-03-01T01:43:44;1.50;99.90
9658;DHT22;4867;48.112;11.622;2023-03-01T01:46:31;1.50;99.90
9658;DHT22;4867;48.112;11.622;2023-03-01T01:49:05;1.40;99.90
9658;DHT22;4867;48.112;11.622;2023-03-01T01:51:40;1.40;99.90
9658;DHT22;4867;48.112;11.622;2023-03-01T01:54:12;1.40;99.90
9658;DHT22;4867;48.112;11.622;2023-03-01T01:56:44;1.50;99.90
9658;DHT22;4867;48.112;11.622;2023-03-01T01:59:12;1.40;99.90
9658;DHT22;4867;48.112;11.622;2023-03-01T02:01:39;1.40;99.90
9658;DHT22;4867;48.112;11.622;2023-03-01T02:04:06;1.40;99.90
9658;DHT22;4867;48.112;11.622;2023-03-01T02:06:37;1.40;99.90
9658;DHT22;4867;48.112;11.622;2023-03-01T02:09:13;1.40;99.90
9658;DHT22;4867;48.112;11.622;2023-03-01T02:11:41;1.50;99.90
9658;DHT22;4867;48.112;11.622;2023-03-01T02:14:10;1.40;99.90
9658;DHT22;4867;48.112;11.622;2023-03-01T02:16:37;1.40;99.90
9658;DHT22;4867;48.112;11.622;2023-03-01T02:19:05;1.40;99.90
9658;DHT22;4867;48.112;11.622;2023-03-01T02:22:22;1.30;99.90
9658;DHT22;4867;48.112;11.622;2023-03-01T02:27:18;1.40;99.90
9658;DHT22;4867;48.112;11.622;2023-03-01T02:29:51;1.40;99.90
9658;DHT22;4867;48.112;11.622;2023-03-01T02:32:19;1.40;99.90
9658;DHT22;4867;48.112;11.622;2023-03-01T02:34:55;1.40;99.90
9658;DHT22;4867;48.112;11.622;2023-03-01T02:37:23;1.30;99.90
9658;DHT22;4867;48.112;11.622;2023-03-01T02:39:58;1.30;99.90
9658;DHT22;4867;48.112;11.622;2023-03-01T02:42:30;1.30;99.90
9658;DHT22;4867;48.112;11.622;2023-03-01T02:44:58;1.30;99.90
9658;DHT22;4867;48.112;11.622;2023-03-01T02:47:25;1.20;99.90
9658;DHT22;4867;48.112;11.622;2023-03-01T02:49:53;1.20;99.90
9658;DHT22;4867;48.112;11.622;2023-03-01T02:55:11;1.20;99.90
9658;DHT22;4867;48.112;11.622;2023-03-01T02:57:43;1.20;99.90
9658;DHT22;4867;48.112;11.622;2023-03-01T03:00:21;1.10;99.90
9658;DHT22;4867;48.112;11.622;2023-03-01T03:02:51;1.00;99.90
9658;DHT22;4867;48.112;11.622;2023-03-01T03:05:24;1.10;99.90
9658;DHT22;4867;48.112;11.622;2023-03-01T03:07:56;1.00;99.90
9658;DHT22;4867;48.112;11.622;2023-03-01T03:10:31;1.00;99.90
9658;DHT22;4867;48.112;11.622;2023-03-01T03:13:05;1.00;99.90
9658;DHT22;4867;48.112;11.622;2023-03-01T03:15:32;1.00;99.90
9658;DHT22;4867;48.112;11.622;2023-03-01T03:18:06;1.00;99.90
9658;DHT22;4867;48.112;11.622;2023-03-01T03:20:34;1.00;99.90
9658;DHT22;4867;48.112;11.622;2023-03-01T03:23:01;1.00;99.90
9658;DHT22;4867;48.112;11.622;2023-03-01T03:25:29;1.00;99.90
9658;DHT22;4867;48.112;11.622;2023-03-01T03:27:57;0.90;99.90
9658;DHT22;4867;48.112;11.622;2023-03-01T03:30:27;0.90;99.90
9658;DHT22;4867;48.112;11.622;2023-03-01T03:32:56;0.90;99.90
9658;DHT22;4867;48.112;11.622;2023-03-01T03:35:32;0.90;99.90
9658;DHT22;4867;48.112;11.622;2023-03-01T03:38:04;0.90;99.90
9658;DHT22;4867;48.112;11.622;2023-03-01T03:40:38;1.00;99.90
9658;DHT22;4867;48.112;11.622;2023-03-01T03:43:11;0.90;99.90
9658;DHT22;4867;48.112;11.622;2023-03-01T03:45:39;0.90;99.90
9658;DHT22;4867;48.112;11.622;2023-03-01T03:48:08;0.90;99.90
9658;DHT22;4867;48.112;11.622;2023-03-01T03:50:38;0.90;99.90
9658;DHT22;4867;48.112;11.622;2023-03-01T03:53:08;0.90;99.90
9658;DHT22;4867;48.112;11.622;2023-03-01T03:55:35;0.90;99.90
9658;DHT22;4867;48.112;11.622;2023-03-01T03:58:08;1.00;99.90
9658;DHT22;4867;48.112;11.622;2023-03-01T04:00:40;0.90;99.90
9658;DHT22;4867;48.112;11.622;2023-03-01T04:03:08;0.90;99.90
9658;DHT22;4867;48.112;11.622;2023-03-01T04:05:36;0.90;99.90
9658;DHT22;4867;48.112;11.622;2023-03-01T04:08:04;0.90;99.90
9658;DHT22;4867;48.112;11.622;2023-03-01T04:10:37;0.90;99.90
9658;DHT22;4867;48.112;11.622;2023-03-01T04:13:06;0.80;99.90
9658;DHT22;4867;48.112;11.622;2023-03-01T04:15:33;0.90;99.90
9658;DHT22;4867;48.112;11.622;2023-03-01T04:18:01;0.90;99.90
9658;DHT22;4867;48.112;11.622;2023-03-01T04:20:31;0.90;99.90
9658;DHT22;4867;48.112;11.622;2023-03-01T04:23:06;0.90;99.90
9658;DHT22;4867;48.112;11.622;2023-03-01T04:25:52;0.90;99.90
9658;DHT22;4867;48.112;11.622;2023-03-01T04:28:32;0.90;99.90
9658;DHT22;4867;48.112;11.622;2023-03-01T04:31:06;0.90;99.90
9658;DHT22;4867;48.112;11.622;2023-03-01T04:33:44;0.80;99.90
9658;DHT22;4867;48.112;11.622;2023-03-01T04:36:13;0.80;99.90
9658;DHT22;4867;48.112;11.622;2023-03-01T04:38:42;0.70;99.90
9658;DHT22;4867;48.112;11.622;2023-03-01T04:41:10;0.70;99.90
9658;DHT22;4867;48.112;11.622;2023-03-01T04:43:38;0.80;99.90
9658;DHT22;4867;48.112;11.622;2023-03-01T04:46:08;0.70;99.90
9658;DHT22;4867;48.112;11.622;2023-03-01T04:48:40;0.60;99.90
9658;DHT22;4867;48.112;11.622;2023-03-01T04:51:08;0.60;99.90
9658;DHT22;4867;48.112;11.622;2023-03-01T04:53:36;0.50;99.90
9658;DHT22;4867;48.112;11.622;2023-03-01T04:56:04;0.50;99.90
9658;DHT22;4867;48.112;11.622;2023-03-01T04:58:31;0.50;99.90
9658;DHT22;4867;48.112;11.622;2023-03-01T05:00:59;0.50;99.90
9658;DHT22;4867;48.112;11.622;2023-03-01T05:03:26;0.50;99.90
9658;DHT22;4867;48.112;11.622;2023-03-01T05:05:53;0.50;99.90
9658;DHT22;4867;48.112;11.622;2023-03-01T05:08:20;0.50;99.90
9658;DHT22;4867;48.112;11.622;2023-03-01T05:10:52;0.40;99.90
9658;DHT22;4867;48.112;11.622;2023-03-01T05:13:21;0.40;99.90
9658;DHT22;4867;48.112;11.622;2023-03-01T05:15:54;0.40;99.90
9658;DHT22;4867;48.112;11.622;2023-03-01T05:18:22;0.40;99.90
9658;DHT22;4867;48.112;11.622;2023-03-01T05:21:01;0.40;99.90
9658;DHT22;4867;48.112;11.622;2023-03-01T05:23:32;0.40;99.90
9658;DHT22;4867;48.112;11.622;2023-03-01T05:26:01;0.40;99.90
9658;DHT22;4867;48.112;11.622;2023-03-01T05:28:30;0.40;99.90
9658;DHT22;4867;48.112;11.622;2023-03-01T05:30:58;0.30;99.90
9658;DHT22;4867;48.112;11.622;2023-03-01T05:33:25;0.20;99.90
9658;DHT22;4867;48.112;11.622;2023-03-01T05:35:53;0.20;99.90
9658;DHT22;4867;48.112;11.622;2023-03-01T05:38:21;0.20;99.90
9658;DHT22;4867;48.112;11.622;2023-03-01T05:40:49;0.20;99.90
9658;DHT22;4867;48.112;11.622;2023-03-01T05:43:16;0.20;99.90
9658;DHT22;4867;48.112;11.622;2023-03-01T05:45:45;0.10;99.90
9658;DHT22;4867;48.112;11.622;2023-03-01T05:48:13;0.10;99.90
9658;DHT22;4867;48.112;11.622;2023-03-01T05:50:42;0.10;99.90
9658;DHT22;4867;48.112;11.622;2023-03-01T05:53:13;0.10;99.90
9658;DHT22;4867;48.112;11.622;2023-03-01T05:55:40;0.20;99.90
9658;DHT22;4867;48.112;11.622;2023-03-01T05:58:11;0.20;99.90
9658;DHT22;4867;48.112;11.622;2023-03-01T06:00:42;0.20;99.90
9658;DHT22;4867;48.112;11.622;2023-03-01T06:03:11;0.20;99.90
9658;DHT22;4867;48.112;11.622;2023-03-01T06:05:39;0.20;99.90
9658;DHT22;4867;48.112;11.622;2023-03-01T06:08:09;0.20;99.90
9658;DHT22;4867;48.112;11.622;2023-03-01T06:10:36;0.20;99.90
9658;DHT22;4867;48.112;11.622;2023-03-01T06:13:04;0.20;99.90
9658;DHT22;4867;48.112;11.622;2023-03-01T06:15:31;0.20;99.90
9658;DHT22;4867;48.112;11.622;2023-03-01T06:17:59;0.20;99.90
9658;DHT22;4867;48.112;11.622;2023-03-01T06:20:28;0.20;99.90
9658;DHT22;4867;48.112;11.622;2023-03-01T06:22:56;0.20;99.90
9658;DHT22;4867;48.112;11.622;2023-03-01T06:25:25;0.20;99.90
9658;DHT22;4867;48.112;11.622;2023-03-01T06:27:53;0.30;99.90
9658;DHT22;4867;48.112;11.622;2023-03-01T06:30:22;0.30;99.90
9658;DHT22;4867;48.112;11.622;2023-03-01T06:32:49;0.40;99.90
9658;DHT22;4867;48.112;11.622;2023-03-01T06:35:18;0.40;99.90
9658;DHT22;4867;48.112;11.622;2023-03-01T06:37:46;0.40;99.90
9658;DHT22;4867;48.112;11.622;2023-03-01T06:40:15;0.40;99.90
9658;DHT22;4867;48.112;11.622;2023-03-01T06:42:43;0.50;99.90
9658;DHT22;4867;48.112;11.622;2023-03-01T06:45:11;0.40;99.90
9658;DHT22;4867;48.112;11.622;2023-03-01T06:47:38;0.30;99.90
9658;DHT22;4867;48.112;11.622;2023-03-01T06:50:05;0.30;99.90
9658;DHT22;4867;48.112;11.622;2023-03-01T06:52:33;0.20;99.90
9658;DHT22;4867;48.112;11.622;2023-03-01T06:55:00;0.20;99.90
9658;DHT22;4867;48.112;11.622;2023-03-01T06:57:27;0.20;99.90
9658;DHT22;4867;48.112;11.622;2023-03-01T06:59:55;0.20;99.90
9658;DHT22;4867;48.112;11.622;2023-03-01T07:02:22;0.20;99.90
9658;DHT22;4867;48.112;11.622;2023-03-01T07:04:50;0.20;99.90
9658;DHT22;4867;48.112;11.622;2023-03-01T07:07:18;0.20;99.90
9658;DHT22;4867;48.112;11.622;2023-03-01T07:09:46;0.20;99.90
9658;DHT22;4867;48.112;11.622;2023-03-01T07:12:13;0.20;99.90
9658;DHT22;4867;48.112;11.622;2023-03-01T07:14:41;0.30;99.90
9658;DHT22;4867;48.112;11.622;2023-03-01T07:17:08;0.30;99.90
9658;DHT22;4867;48.112;11.622;2023-03-01T07:19:35;0.30;99.90
9658;DHT22;4867;48.112;11.622;2023-03-01T07:22:03;0.40;99.90
9658;DHT22;4867;48.112;11.622;2023-03-01T07:24:31;0.40;99.90
9658;DHT22;4867;48.112;11.622;2023-03-01T07:26:58;0.40;99.90
9658;DHT22;4867;48.112;11.622;2023-03-01T07:29:25;0.50;99.90
9658;DHT22;4867;48.112;11.622;2023-03-01T07:31:52;0.50;99.90
9658;DHT22;4867;48.112;11.622;2023-03-01T07:34:20;0.60;99.90
9658;DHT22;4867;48.112;11.622;2023-03-01T07:36:47;0.50;99.90
9658;DHT22;4867;48.112;11.622;2023-03-01T07:39:14;0.60;99.90
9658;DHT22;4867;48.112;11.622;2023-03-01T07:41:44;0.50;99.90
9658;DHT22;4867;48.112;11.622;2023-03-01T07:44:11;0.60;99.90
9658;DHT22;4867;48.112;11.622;2023-03-01T07:46:38;0.60;99.90
9658;DHT22;4867;48.112;11.622;2023-03-01T07:49:06;0.60;99.90
9658;DHT22;4867;48.112;11.622;2023-03-01T07:51:33;0.60;99.90
9658;DHT22;4867;48.112;11.622;2023-03-01T07:54:00;0.70;99.90
9658;DHT22;4867;48.112;11.622;2023-03-01T07:56:27;0.70;99.90
9658;DHT22;4867;48.112;11.622;2023-03-01T07:58:55;0.70;99.90
9658;DHT22;4867;48.112;11.622;2023-03-01T08:01:22;0.80;99.90
9658;DHT22;4867;48.112;11.622;2023-03-01T08:03:50;0.90;99.90
9658;DHT22;4867;48.112;11.622;2023-03-01T08:06:18;1.00;99.90
9658;DHT22;4867;48.112;11.622;2023-03-01T08:08:45;1.00;99.90
9658;DHT22;4867;48.112;11.622;2023-03-01T08:11:14;1.00;99.90
9658;DHT22;4867;48.112;11.622;2023-03-01T08:13:42;1.00;99.90
9658;DHT22;4867;48.112;11.622;2023-03-01T08:16:12;1.00;99.90
9658;DHT22;4867;48.112;11.622;2023-03-01T08:18:40;1.10;99.90
9658;DHT22;4867;48.112;11.622;2023-03-01T08:21:13;1.20;99.90
9658;DHT22;4867;48.112;11.622;2023-03-01T08:23:41;1.30;99.90
9658;DHT22;4867;48.112;11.622;2023-03-01T08:26:17;1.40;99.90
9658;DHT22;4867;48.112;11.622;2023-03-01T08:28:46;1.50;99.90
9658;DHT22;4867;48.112;11.622;2023-03-01T08:31:25;1.60;99.90
9658;DHT22;4867;48.112;11.622;2023-03-01T08:33:55;1.70;99.90
9658;DHT22;4867;48.112;11.622;2023-03-01T08:36:31;1.70;99.90
9658;DHT22;4867;48.112;11.622;2023-03-01T08:39:00;1.70;99.90
9658;DHT22;4867;48.112;11.622;2023-03-01T08:41:27;1.70;99.90
9658;DHT22;4867;48.112;11.622;2023-03-01T08:43:55;1.80;99.90
9658;DHT22;4867;48.112;11.622;2023-03-01T08:46:38;1.80;99.90
9658;DHT22;4867;48.112;11.622;2023-03-01T08:49:17;1.90;99.90
9658;DHT22;4867;48.112;11.622;2023-03-01T08:51:46;2.00;99.90
9658;DHT22;4867;48.112;11.622;2023-03-01T08:54:18;2.00;99.90
9658;DHT22;4867;48.112;11.622;2023-03-01T08:56:46;2.10;99.90
9658;DHT22;4867;48.112;11.622;2023-03-01T08:59:17;2.30;99.90
9658;DHT22;4867;48.112;11.622;2023-03-01T09:01:44;2.30;99.90
9658;DHT22;4867;48.112;11.622;2023-03-01T09:04:12;2.40;99.90
9658;DHT22;4867;48.112;11.622;2023-03-01T09:06:41;2.30;99.90
9658;DHT22;4867;48.112;11.622;2023-03-01T09:09:16;2.30;99.90
9658;DHT22;4867;48.112;11.622;2023-03-01T09:11:45;2.30;99.90
9658;DHT22;4867;48.112;11.622;2023-03-01T09:14:13;2.40;99.90
9658;DHT22;4867;48.112;11.622;2023-03-01T09:16:41;2.40;99.90
9658;DHT22;4867;48.112;11.622;2023-03-01T09:19:08;2.50;99.90
9658;DHT22;4867;48.112;11.622;2023-03-01T09:21:37;2.50;99.90
9658;DHT22;4867;48.112;11.622;2023-03-01T09:24:13;2.50;99.90
9658;DHT22;4867;48.112;11.622;2023-03-01T09:26:42;2.50;99.90
9658;DHT22;4867;48.112;11.622;2023-03-01T09:29:09;2.60;99.90
9658;DHT22;4867;48.112;11.622;2023-03-01T09:31:37;2.70;99.90
9658;DHT22;4867;48.112;11.622;2023-03-01T09:34:05;2.70;99.90
9658;DHT22;4867;48.112;11.622;2023-03-01T09:36:33;2.80;99.90
9658;DHT22;4867;48.112;11.622;2023-03-01T09:39:01;2.80;99.90
9658;DHT22;4867;48.112;11.622;2023-03-01T09:41:42;2.80;99.90
9658;DHT22;4867;48.112;11.622;2023-03-01T09:44:30;2.70;99.90
9658;DHT22;4867;48.112;11.622;2023-03-01T09:47:00;2.90;99.90
9658;DHT22;4867;48.112;11.622;2023-03-01T09:49:31;2.70;99.90
9658;DHT22;4867;48.112;11.622;2023-03-01T09:52:15;2.80;99.90
9658;DHT22;4867;48.112;11.622;2023-03-01T09:54:47;2.80;99.90
9658;DHT22;4867;48.112;11.622;2023-03-01T09:57:19;2.90;99.90
9658;DHT22;4867;48.112;11.622;2023-03-01T10:00:07;2.90;99.90
9658;DHT22;4867;48.112;11.622;2023-03-01T10:02:57;3.00;99.90
9658;DHT22;4867;48.112;11.622;2023-03-01T10:05:47;3.10;99.90
9658;DHT22;4867;48.112;11.622;2023-03-01T10:08:58;3.20;99.90
9658;DHT22;4867;48.112;11.622;2023-03-01T10:11:35;3.20;99.90
9658;DHT22;4867;48.112;11.622;2023-03-01T10:16:54;3.30;99.90
9658;DHT22;4867;48.112;11.622;2023-03-01T10:19:34;3.40;99.90
9658;DHT22;4867;48.112;11.622;2023-03-01T10:24:51;3.50;99.90
9658;DHT22;4867;48.112;11.622;2023-03-01T10:32:53;3.70;99.90
9658;DHT22;4867;48.112;11.622;2023-03-01T10:35:31;3.60;99.90
9658;DHT22;4867;48.112;11.622;2023-03-01T10:38:11;3.60;99.90
9658;DHT22;4867;48.112;11.622;2023-03-01T10:41:05;3.60;99.90
9658;DHT22;4867;48.112;11.622;2023-03-01T10:43:50;3.70;99.90
9658;DHT22;4867;48.112;11.622;2023-03-01T10:51:49;3.90;99.90
9658;DHT22;4867;48.112;11.622;2023-03-01T10:54:28;4.00;99.90
9658;DHT22;4867;48.112;11.622;2023-03-01T10:57:01;4.20;99.90
9658;DHT22;4867;48.112;11.622;2023-03-01T10:59:31;4.30;99.90
9658;DHT22;4867;48.112;11.622;2023-03-01T11:02:27;4.50;99.90
9658;DHT22;4867;48.112;11.622;2023-03-01T11:07:48;4.40;99.90
9658;DHT22;4867;48.112;11.622;2023-03-01T11:10:36;4.40;99.90
9658;DHT22;4867;48.112;11.622;2023-03-01T11:13:15;4.30;99.90
9658;DHT22;4867;48.112;11.622;2023-03-01T11:15:43;4.30;99.90
9658;DHT22;4867;48.112;11.622;2023-03-01T11:18:26;4.40;99.90
9658;DHT22;4867;48.112;11.622;2023-03-01T11:21:12;4.30;99.90
9658;DHT22;4867;48.112;11.622;2023-03-01T11:23:39;4.30;99.90
9658;DHT22;4867;48.112;11.622;2023-03-01T11:26:09;4.40;99.90
9658;DHT22;4867;48.112;11.622;2023-03-01T11:28:40;4.40;99.90
9658;DHT22;4867;48.112;11.622;2023-03-01T11:31:11;4.40;99.90
9658;DHT22;4867;48.112;11.622;2023-03-01T11:39:10;4.60;99.90
9658;DHT22;4867;48.112;11.622;2023-03-01T11:41:40;4.70;99.90
9658;DHT22;4867;48.112;11.622;2023-03-01T11:44:19;4.90;99.90
9658;DHT22;4867;48.112;11.622;2023-03-01T11:49:43;4.80;99.90
9658;DHT22;4867;48.112;11.622;2023-03-01T11:55:13;5.00;99.90
9658;DHT22;4867;48.112;11.622;2023-03-01T11:58:11;5.00;99.90
9658;DHT22;4867;48.112;11.622;2023-03-01T12:01:12;5.00;99.90
9658;DHT22;4867;48.112;11.622;2023-03-01T12:07:00;4.90;99.90
9658;DHT22;4867;48.112;11.622;2023-03-01T12:12:32;4.80;99.90
9658;DHT22;4867;48.112;11.622;2023-03-01T12:26:28;5.00;99.90
9658;DHT22;4867;48.112;11.622;2023-03-01T12:29:31;5.10;99.90
9658;DHT22;4867;48.112;11.622;2023-03-01T12:43:08;5.00;99.90
9658;DHT22;4867;48.112;11.622;2023-03-01T12:46:24;5.00;99.90
9658;DHT22;4867;48.112;11.622;2023-03-01T12:49:02;5.00;99.90
9658;DHT22;4867;48.112;11.622;2023-03-01T12:51:35;5.10;99.90
9658;DHT22;4867;48.112;11.622;2023-03-01T12:54:11;5.00;99.90
9658;DHT22;4867;48.112;11.622;2023-03-01T12:56:40;5.10;99.90
9658;DHT22;4867;48.112;11.622;2023-03-01T12:59:11;5.20;99.90
9658;DHT22;4867;48.112;11.622;2023-03-01T13:04:36;5.40;99.90
9658;DHT22;4867;48.112;11.622;2023-03-01T13:17:54;5.60;99.90
9658;DHT22;4867;48.112;11.622;2023-03-01T13:31:10;5.90;99.90
9658;DHT22;4867;48.112;11.622;2023-03-01T13:33:43;5.90;99.90
9658;DHT22;4867;48.112;11.622;2023-03-01T13:38:59;6.00;99.90
9658;DHT22;4867;48.112;11.622;2023-03-01T13:44:30;5.90;99.90
9658;DHT22;4867;48.112;11.622;2023-03-01T13:47:16;5.90;99.90
9658;DHT22;4867;48.112;11.622;2023-03-01T13:50:00;5.90;99.90
9658;DHT22;4867;48.112;11.622;2023-03-01T13:52:36;6.00;99.90
9658;DHT22;4867;48.112;11.622;2023-03-01T13:55:52;6.10;99.90
9658;DHT22;4867;48.112;11.622;2023-03-01T13:57:56;6.10;99.90
9658;DHT22;4867;48.112;11.622;2023-03-01T14:00:28;6.10;99.90
9658;DHT22;4867;48.112;11.622;2023-03-01T14:03:10;6.10;99.90
9658;DHT22;4867;48.112;11.622;2023-03-01T14:05:39;6.20;99.90
9658;DHT22;4867;48.112;11.622;2023-03-01T14:08:22;6.20;99.90
9658;DHT22;4867;48.112;11.622;2023-03-01T14:11:09;6.30;99.90
9658;DHT22;4867;48.112;11.622;2023-03-01T14:16:49;6.30;99.90
9658;DHT22;4867;48.112;11.622;2023-03-01T14:19:24;6.30;99.90
9658;DHT22;4867;48.112;11.622;2023-03-01T14:24:46;6.40;99.90
9658;DHT22;4867;48.112;11.622;2023-03-01T14:27:15;6.50;99.90
9658;DHT22;4867;48.112;11.622;2023-03-01T14:29:43;6.50;99.90
9658;DHT22;4867;48.112;11.622;2023-03-01T14:32:21;6.50;99.90
9658;DHT22;4867;48.112;11.622;2023-03-01T14:34:50;6.50;99.90
9658;DHT22;4867;48.112;11.622;2023-03-01T14:37:30;6.40;99.90
9658;DHT22;4867;48.112;11.622;2023-03-01T14:40:01;6.40;99.90
9658;DHT22;4867;48.112;11.622;2023-03-01T14:42:36;6.30;99.90
9658;DHT22;4867;48.112;11.622;2023-03-01T14:45:04;6.30;99.90
9658;DHT22;4867;48.112;11.622;2023-03-01T14:47:35;6.40;99.90
9658;DHT22;4867;48.112;11.622;2023-03-01T14:50:27;6.50;99.90
9658;DHT22;4867;48.112;11.622;2023-03-01T14:52:58;6.50;99.90
9658;DHT22;4867;48.112;11.622;2023-03-01T14:55:42;6.50;99.90
9658;DHT22;4867;48.112;11.622;2023-03-01T14:58:13;6.50;99.90
9658;DHT22;4867;48.112;11.622;2023-03-01T15:00:59;6.50;99.90
9658;DHT22;4867;48.112;11.622;2023-03-01T15:03:38;6.50;99.90
9658;DHT22;4867;48.112;11.622;2023-03-01T15:06:08;6.50;99.90
9658;DHT22;4867;48.112;11.622;2023-03-01T15:08:37;6.50;99.90
9658;DHT22;4867;48.112;11.622;2023-03-01T15:11:18;6.60;99.90
9658;DHT22;4867;48.112;11.622;2023-03-01T15:13:49;6.60;99.90
9658;DHT22;4867;48.112;11.622;2023-03-01T15:16:26;6.60;99.90
9658;DHT22;4867;48.112;11.622;2023-03-01T15:19:02;6.60;99.90
9658;DHT22;4867;48.112;11.622;2023-03-01T15:21:33;6.60;99.90
9658;DHT22;4867;48.112;11.622;2023-03-01T15:26:57;6.70;99.90
9658;DHT22;4867;48.112;11.622;2023-03-01T15:29:30;6.60;99.90
9658;DHT22;4867;48.112;11.622;2023-03-01T15:32:05;6.50;99.90
9658;DHT22;4867;48.112;11.622;2023-03-01T15:34:37;6.50;99.90
9658;DHT22;4867;48.112;11.622;2023-03-01T15:37:15;6.60;99.90
9658;DHT22;4867;48.112;11.622;2023-03-01T15:39:56;6.60;99.90
9658;DHT22;4867;48.112;11.622;2023-03-01T15:47:52;6.60;99.90
9658;DHT22;4867;48.112;11.622;2023-03-01T15:50:34;6.60;99.90
9658;DHT22;4867;48.112;11.622;2023-03-01T15:53:06;6.60;99.90
9658;DHT22;4867;48.112;11.622;2023-03-01T15:55:34;6.60;99.90
9658;DHT22;4867;48.112;11.622;2023-03-01T15:58:08;6.60;99.90
9658;DHT22;4867;48.112;11.622;2023-03-01T16:00:36;6.60;99.90
9658;DHT22;4867;48.112;11.622;2023-03-01T16:03:12;6.50;99.90
9658;DHT22;4867;48.112;11.622;2023-03-01T16:05:40;6.50;99.90
9658;DHT22;4867;48.112;11.622;2023-03-01T16:08:07;6.40;99.90
9658;DHT22;4867;48.112;11.622;2023-03-01T16:10:35;6.40;99.90
9658;DHT22;4867;48.112;11.622;2023-03-01T16:13:02;6.40;99.90
9658;DHT22;4867;48.112;11.622;2023-03-01T16:15:31;6.40;99.90
9658;DHT22;4867;48.112;11.622;2023-03-01T16:17:59;6.40;99.90
9658;DHT22;4867;48.112;11.622;2023-03-01T16:20:29;6.50;99.90
9658;DHT22;4867;48.112;11.622;2023-03-01T16:23:05;6.40;99.90
9658;DHT22;4867;48.112;11.622;2023-03-01T16:25:34;6.30;99.90
9658;DHT22;4867;48.112;11.622;2023-03-01T16:28:02;6.30;99.90
9658;DHT22;4867;48.112;11.622;2023-03-01T16:30:32;6.20;99.90
9658;DHT22;4867;48.112;11.622;2023-03-01T16:33:03;6.20;99.90
9658;DHT22;4867;48.112;11.622;2023-03-01T16:35:51;6.20;99.90
9658;DHT22;4867;48.112;11.622;2023-03-01T16:38:18;6.10;99.90
9658;DHT22;4867;48.112;11.622;2023-03-01T16:40:50;6.10;99.90
9658;DHT22;4867;48.112;11.622;2023-03-01T16:43:18;6.00;99.90
9658;DHT22;4867;48.112;11.622;2023-03-01T16:45:45;6.00;99.90
9658;DHT22;4867;48.112;11.622;2023-03-01T16:48:13;5.90;99.90
9658;DHT22;4867;48.112;11.622;2023-03-01T16:50:40;5.90;99.90
9658;DHT22;4867;48.112;11.622;2023-03-01T16:53:08;5.80;99.90
9658;DHT22;4867;48.112;11.622;2023-03-01T16:55:35;5.70;99.90
9658;DHT22;4867;48.112;11.622;2023-03-01T16:58:02;5.70;99.90
9658;DHT22;4867;48.112;11.622;2023-03-01T17:00:31;5.60;99.90
9658;DHT22;4867;48.112;11.622;2023-03-01T17:02:58;5.40;99.90
9658;DHT22;4867;48.112;11.622;2023-03-01T17:05:25;5.30;99.90
9658;DHT22;4867;48.112;11.622;2023-03-01T17:07:52;5.10;99.90
9658;DHT22;4867;48.112;11.622;2023-03-01T17:10:22;5.00;99.90
9658;DHT22;4867;48.112;11.622;2023-03-01T17:12:50;4.80;99.90
9658;DHT22;4867;48.112;11.622;2023-03-01T17:15:17;4.70;99.90
9658;DHT22;4867;48.112;11.622;2023-03-01T17:17:44;4.60;99.90
9658;DHT22;4867;48.112;11.622;2023-03-01T17:20:12;4.50;99.90
9658;DHT22;4867;48.112;11.622;2023-03-01T17:22:39;4.40;99.90
9658;DHT22;4867;48.112;11.622;2023-03-01T17:25:10;4.40;99.90
9658;DHT22;4867;48.112;11.622;2023-03-01T17:27:38;4.20;99.90
9658;DHT22;4867;48.112;11.622;2023-03-01T17:30:07;4.10;99.90
9658;DHT22;4867;48.112;11.622;2023-03-01T17:32:40;4.00;99.90
9658;DHT22;4867;48.112;11.622;2023-03-01T17:35:08;3.90;99.90
9658;DHT22;4867;48.112;11.622;2023-03-01T17:37:40;3.80;99.90
9658;DHT22;4867;48.112;11.622;2023-03-01T17:40:12;3.70;99.90
9658;DHT22;4867;48.112;11.622;2023-03-01T17:42:40;3.70;99.90
9658;DHT22;4867;48.112;11.622;2023-03-01T17:45:07;3.50;99.90
9658;DHT22;4867;48.112;11.622;2023-03-01T17:47:34;3.50;99.90
9658;DHT22;4867;48.112;11.622;2023-03-01T17:50:02;3.70;99.90
9658;DHT22;4867;48.112;11.622;2023-03-01T17:52:31;3.40;99.90
9658;DHT22;4867;48.112;11.622;2023-03-01T17:54:58;3.40;99.90
9658;DHT22;4867;48.112;11.622;2023-03-01T17:57:25;3.30;99.90
9658;DHT22;4867;48.112;11.622;2023-03-01T17:59:53;3.30;99.90
9658;DHT22;4867;48.112;11.622;2023-03-01T18:02:20;3.30;99.90
9658;DHT22;4867;48.112;11.622;2023-03-01T18:04:47;3.30;99.90
9658;DHT22;4867;48.112;11.622;2023-03-01T18:07:15;3.20;99.90
9658;DHT22;4867;48.112;11.622;2023-03-01T18:09:42;3.20;99.90
9658;DHT22;4867;48.112;11.622;2023-03-01T18:12:09;3.20;99.90
9658;DHT22;4867;48.112;11.622;2023-03-01T18:14:36;3.20;99.90
9658;DHT22;4867;48.112;11.622;2023-03-01T18:17:04;3.10;99.90
9658;DHT22;4867;48.112;11.622;2023-03-01T18:19:38;3.00;99.90